Smithville, Arkansas
Current Conditions -  °F | °C
As of 4:15 AM on Saturday 25 Oct 2014 (Local Time) from KARG Reporting Station
Clear Clear  
Wind Chill: 55°   Ceiling: Unl
Heat Index: 55°   Visibility: 9mi
Dew Point: 50°   Wind: 6mph
Humidity: 82%   Direction: 210°SSW
Pressure: 30.05"   Gusts: NA
Location:  36.08°N, 91.3°W
Report Text: KARG 250915Z AUTO 21005KT 9SM CLR 13/10 A3005 RMK AO1
Loading
Personal Weather Stations






























Interactive Weather Map
Tropical Storm Tracking
New forecast layout! Learn more

10-Day Weather Forecast

Advertisements
Track Severe Weather on mobile